sensor_id;sensor_type;location;lat;lon;timestamp;P1;durP1;ratioP1;P2;durP2;ratioP2
17866;SDS011;9059;49.934;8.650;2023-09-07T00:03:04;3.92;;;2.13;;
17866;SDS011;9059;49.934;8.650;2023-09-07T00:13:07;8.05;;;2.45;;
17866;SDS011;9059;49.934;8.650;2023-09-07T00:23:11;4.28;;;2.55;;
17866;SDS011;9059;49.934;8.650;2023-09-07T00:33:14;4.53;;;2.45;;
17866;SDS011;9059;49.934;8.650;2023-09-07T00:43:18;4.00;;;2.35;;
17866;SDS011;9059;49.934;8.650;2023-09-07T00:53:21;6.25;;;2.70;;
17866;SDS011;9059;49.934;8.650;2023-09-07T01:03:27;7.22;;;2.20;;
17866;SDS011;9059;49.934;8.650;2023-09-07T01:13:30;4.50;;;2.30;;
17866;SDS011;9059;49.934;8.650;2023-09-07T01:23:35;5.85;;;2.40;;
17866;SDS011;9059;49.934;8.650;2023-09-07T01:33:38;5.22;;;2.22;;
17866;SDS011;9059;49.934;8.650;2023-09-07T01:43:43;10.57;;;2.53;;
17866;SDS011;9059;49.934;8.650;2023-09-07T01:53:47;4.65;;;2.60;;
17866;SDS011;9059;49.934;8.650;2023-09-07T02:03:51;4.38;;;2.35;;
17866;SDS011;9059;49.934;8.650;2023-09-07T02:13:54;8.63;;;2.47;;
17866;SDS011;9059;49.934;8.650;2023-09-07T02:23:58;6.35;;;2.70;;
17866;SDS011;9059;49.934;8.650;2023-09-07T02:34:01;4.50;;;2.63;;
17866;SDS011;9059;49.934;8.650;2023-09-07T02:44:06;4.88;;;2.60;;
17866;SDS011;9059;49.934;8.650;2023-09-07T02:54:09;5.25;;;2.85;;
17866;SDS011;9059;49.934;8.650;2023-09-07T03:04:14;4.60;;;2.60;;
17866;SDS011;9059;49.934;8.650;2023-09-07T03:14:17;8.40;;;2.97;;
17866;SDS011;9059;49.934;8.650;2023-09-07T03:24:21;8.02;;;3.30;;
17866;SDS011;9059;49.934;8.650;2023-09-07T03:34:24;5.00;;;2.80;;
17866;SDS011;9059;49.934;8.650;2023-09-07T03:44:29;6.35;;;2.50;;
17866;SDS011;9059;49.934;8.650;2023-09-07T03:54:32;6.18;;;2.72;;
17866;SDS011;9059;49.934;8.650;2023-09-07T04:04:36;4.10;;;2.42;;
17866;SDS011;9059;49.934;8.650;2023-09-07T04:14:39;4.53;;;2.47;;
17866;SDS011;9059;49.934;8.650;2023-09-07T04:24:44;5.80;;;2.83;;
17866;SDS011;9059;49.934;8.650;2023-09-07T04:34:52;5.13;;;3.00;;
17866;SDS011;9059;49.934;8.650;2023-09-07T04:44:57;9.00;;;2.50;;
17866;SDS011;9059;49.934;8.650;2023-09-07T04:55:00;5.38;;;2.63;;
17866;SDS011;9059;49.934;8.650;2023-09-07T05:05:05;4.32;;;2.22;;
17866;SDS011;9059;49.934;8.650;2023-09-07T05:15:09;4.13;;;2.42;;
17866;SDS011;9059;49.934;8.650;2023-09-07T05:25:14;4.50;;;2.75;;
17866;SDS011;9059;49.934;8.650;2023-09-07T05:35:17;10.45;;;2.47;;
17866;SDS011;9059;49.934;8.650;2023-09-07T05:45:21;4.68;;;2.42;;
17866;SDS011;9059;49.934;8.650;2023-09-07T05:55:24;7.53;;;2.55;;
17866;SDS011;9059;49.934;8.650;2023-09-07T06:05:28;4.22;;;2.58;;
17866;SDS011;9059;49.934;8.650;2023-09-07T06:15:31;4.53;;;2.65;;
17866;SDS011;9059;49.934;8.650;2023-09-07T06:25:35;3.08;;;2.03;;
17866;SDS011;9059;49.934;8.650;2023-09-07T06:35:39;3.60;;;2.38;;
17866;SDS011;9059;49.934;8.650;2023-09-07T06:45:43;11.65;;;2.70;;
17866;SDS011;9059;49.934;8.650;2023-09-07T06:55:46;3.67;;;2.42;;
17866;SDS011;9059;49.934;8.650;2023-09-07T07:05:50;6.05;;;2.38;;
17866;SDS011;9059;49.934;8.650;2023-09-07T07:15:53;6.75;;;2.42;;
17866;SDS011;9059;49.934;8.650;2023-09-07T07:26:14;4.05;;;2.60;;
17866;SDS011;9059;49.934;8.650;2023-09-07T07:36:17;6.25;;;2.60;;
17866;SDS011;9059;49.934;8.650;2023-09-07T07:46:22;3.85;;;2.65;;
17866;SDS011;9059;49.934;8.650;2023-09-07T07:56:25;5.55;;;2.92;;
17866;SDS011;9059;49.934;8.650;2023-09-07T08:06:31;4.35;;;3.08;;
17866;SDS011;9059;49.934;8.650;2023-09-07T08:16:34;4.95;;;2.83;;
17866;SDS011;9059;49.934;8.650;2023-09-07T08:26:38;4.85;;;2.78;;
17866;SDS011;9059;49.934;8.650;2023-09-07T08:36:41;5.63;;;2.92;;
17866;SDS011;9059;49.934;8.650;2023-09-07T08:46:46;6.13;;;3.28;;
17866;SDS011;9059;49.934;8.650;2023-09-07T08:56:51;7.70;;;2.97;;
17866;SDS011;9059;49.934;8.650;2023-09-07T09:06:56;6.45;;;3.08;;
17866;SDS011;9059;49.934;8.650;2023-09-07T09:17:00;5.72;;;2.70;;
17866;SDS011;9059;49.934;8.650;2023-09-07T09:27:05;4.93;;;2.80;;
17866;SDS011;9059;49.934;8.650;2023-09-07T09:37:12;4.07;;;2.97;;
17866;SDS011;9059;49.934;8.650;2023-09-07T09:47:17;7.13;;;3.03;;
17866;SDS011;9059;49.934;8.650;2023-09-07T09:57:20;5.03;;;3.15;;
17866;SDS011;9059;49.934;8.650;2023-09-07T10:07:39;3.63;;;2.78;;
17866;SDS011;9059;49.934;8.650;2023-09-07T10:17:44;3.70;;;2.80;;
17866;SDS011;9059;49.934;8.650;2023-09-07T10:27:49;5.95;;;2.83;;
17866;SDS011;9059;49.934;8.650;2023-09-07T10:37:52;4.85;;;3.08;;
17866;SDS011;9059;49.934;8.650;2023-09-07T10:47:56;6.55;;;2.85;;
17866;SDS011;9059;49.934;8.650;2023-09-07T10:57:59;6.40;;;2.80;;
17866;SDS011;9059;49.934;8.650;2023-09-07T11:08:04;4.57;;;2.55;;
17866;SDS011;9059;49.934;8.650;2023-09-07T11:18:08;10.02;;;3.00;;
17866;SDS011;9059;49.934;8.650;2023-09-07T11:28:14;4.63;;;2.90;;
17866;SDS011;9059;49.934;8.650;2023-09-07T11:38:18;4.78;;;2.92;;
17866;SDS011;9059;49.934;8.650;2023-09-07T11:48:23;7.43;;;2.80;;
17866;SDS011;9059;49.934;8.650;2023-09-07T11:58:26;5.35;;;2.90;;
17866;SDS011;9059;49.934;8.650;2023-09-07T12:08:32;4.55;;;3.00;;
17866;SDS011;9059;49.934;8.650;2023-09-07T12:18:35;5.63;;;3.20;;
17866;SDS011;9059;49.934;8.650;2023-09-07T12:28:40;4.82;;;2.80;;
17866;SDS011;9059;49.934;8.650;2023-09-07T12:38:43;6.03;;;2.60;;
17866;SDS011;9059;49.934;8.650;2023-09-07T12:48:48;5.13;;;3.03;;
17866;SDS011;9059;49.934;8.650;2023-09-07T12:58:51;5.10;;;2.70;;
17866;SDS011;9059;49.934;8.650;2023-09-07T13:08:56;5.32;;;2.45;;
17866;SDS011;9059;49.934;8.650;2023-09-07T13:18:59;3.65;;;2.88;;
17866;SDS011;9059;49.934;8.650;2023-09-07T13:29:03;2.78;;;2.30;;
17866;SDS011;9059;49.934;8.650;2023-09-07T13:39:06;2.65;;;2.40;;
17866;SDS011;9059;49.934;8.650;2023-09-07T13:49:11;4.18;;;2.65;;
17866;SDS011;9059;49.934;8.650;2023-09-07T13:59:14;6.35;;;3.00;;
17866;SDS011;9059;49.934;8.650;2023-09-07T14:09:19;8.25;;;2.72;;
17866;SDS011;9059;49.934;8.650;2023-09-07T14:19:24;2.80;;;2.38;;
17866;SDS011;9059;49.934;8.650;2023-09-07T14:29:30;7.68;;;2.45;;
17866;SDS011;9059;49.934;8.650;2023-09-07T14:39:33;3.30;;;2.33;;
17866;SDS011;9059;49.934;8.650;2023-09-07T14:49:38;6.60;;;2.97;;
17866;SDS011;9059;49.934;8.650;2023-09-07T14:59:41;3.55;;;2.55;;
17866;SDS011;9059;49.934;8.650;2023-09-07T15:09:45;2.92;;;2.38;;
17866;SDS011;9059;49.934;8.650;2023-09-07T15:19:48;3.72;;;3.05;;
17866;SDS011;9059;49.934;8.650;2023-09-07T15:29:52;3.88;;;2.72;;
17866;SDS011;9059;49.934;8.650;2023-09-07T15:39:55;5.22;;;3.25;;
17866;SDS011;9059;49.934;8.650;2023-09-07T15:50:00;3.85;;;3.50;;
17866;SDS011;9059;49.934;8.650;2023-09-07T16:00:03;5.03;;;3.92;;
17866;SDS011;9059;49.934;8.650;2023-09-07T16:10:09;5.35;;;4.50;;
17866;SDS011;9059;49.934;8.650;2023-09-07T16:20:15;7.25;;;4.53;;
17866;SDS011;9059;49.934;8.650;2023-09-07T16:30:19;4.75;;;4.30;;
17866;SDS011;9059;49.934;8.650;2023-09-07T16:40:22;5.53;;;4.50;;
17866;SDS011;9059;49.934;8.650;2023-09-07T16:50:26;3.97;;;3.67;;
17866;SDS011;9059;49.934;8.650;2023-09-07T17:00:29;4.18;;;3.78;;
17866;SDS011;9059;49.934;8.650;2023-09-07T17:10:34;3.60;;;3.30;;
17866;SDS011;9059;49.934;8.650;2023-09-07T17:20:38;5.30;;;2.80;;
17866;SDS011;9059;49.934;8.650;2023-09-07T17:30:43;3.15;;;2.85;;
17866;SDS011;9059;49.934;8.650;2023-09-07T17:40:46;3.35;;;2.63;;
17866;SDS011;9059;49.934;8.650;2023-09-07T17:50:50;5.85;;;2.72;;
17866;SDS011;9059;49.934;8.650;2023-09-07T18:00:53;3.50;;;2.50;;
17866;SDS011;9059;49.934;8.650;2023-09-07T18:10:58;6.18;;;2.67;;
17866;SDS011;9059;49.934;8.650;2023-09-07T18:21:05;4.13;;;2.63;;
17866;SDS011;9059;49.934;8.650;2023-09-07T18:31:10;4.20;;;2.75;;
17866;SDS011;9059;49.934;8.650;2023-09-07T18:41:14;9.50;;;3.00;;
17866;SDS011;9059;49.934;8.650;2023-09-07T18:51:18;5.28;;;2.58;;
17866;SDS011;9059;49.934;8.650;2023-09-07T19:01:22;5.18;;;2.38;;
17866;SDS011;9059;49.934;8.650;2023-09-07T19:11:26;4.50;;;2.88;;
17866;SDS011;9059;49.934;8.650;2023-09-07T19:21:29;7.35;;;2.97;;
17866;SDS011;9059;49.934;8.650;2023-09-07T19:31:37;4.32;;;3.05;;
17866;SDS011;9059;49.934;8.650;2023-09-07T19:41:41;4.07;;;2.60;;
17866;SDS011;9059;49.934;8.650;2023-09-07T19:51:45;5.88;;;2.78;;
17866;SDS011;9059;49.934;8.650;2023-09-07T20:01:51;4.80;;;2.50;;
17866;SDS011;9059;49.934;8.650;2023-09-07T20:11:58;7.60;;;3.33;;
17866;SDS011;9059;49.934;8.650;2023-09-07T20:22:02;5.67;;;3.10;;
17866;SDS011;9059;49.934;8.650;2023-09-07T20:32:07;5.90;;;2.75;;
17866;SDS011;9059;49.934;8.650;2023-09-07T20:42:10;12.52;;;3.38;;
17866;SDS011;9059;49.934;8.650;2023-09-07T20:52:15;5.05;;;2.58;;
17866;SDS011;9059;49.934;8.650;2023-09-07T21:02:18;6.80;;;2.78;;
17866;SDS011;9059;49.934;8.650;2023-09-07T21:12:23;4.43;;;2.58;;
17866;SDS011;9059;49.934;8.650;2023-09-07T21:22:26;5.00;;;2.88;;
17866;SDS011;9059;49.934;8.650;2023-09-07T21:32:31;9.52;;;3.00;;
17866;SDS011;9059;49.934;8.650;2023-09-07T21:42:34;3.10;;;2.30;;
17866;SDS011;9059;49.934;8.650;2023-09-07T21:52:38;7.07;;;2.80;;
17866;SDS011;9059;49.934;8.650;2023-09-07T22:02:41;8.35;;;3.17;;
17866;SDS011;9059;49.934;8.650;2023-09-07T22:12:46;8.88;;;3.47;;
17866;SDS011;9059;49.934;8.650;2023-09-07T22:22:50;11.45;;;3.28;;
17866;SDS011;9059;49.934;8.650;2023-09-07T22:32:54;8.65;;;3.08;;
17866;SDS011;9059;49.934;8.650;2023-09-07T22:42:57;7.65;;;3.10;;
17866;SDS011;9059;49.934;8.650;2023-09-07T22:53:05;10.18;;;3.30;;
17866;SDS011;9059;49.934;8.650;2023-09-07T23:03:08;5.32;;;3.03;;
17866;SDS011;9059;49.934;8.650;2023-09-07T23:13:13;5.38;;;3.30;;
17866;SDS011;9059;49.934;8.650;2023-09-07T23:23:18;8.57;;;3.50;;
17866;SDS011;9059;49.934;8.650;2023-09-07T23:33:22;10.30;;;3.20;;
17866;SDS011;9059;49.934;8.650;2023-09-07T23:43:25;7.97;;;3.03;;
17866;SDS011;9059;49.934;8.650;2023-09-07T23:53:29;8.05;;;3.33;;
